Time;durP1;ratioP1;P1;durP2;ratioP2;P2;SDS_P1;SDS_P2;PMS_P1;PMS_P2;Temp;Humidity;BMP_temperature;BMP_pressure;BME280_temperature;BME280_humidity;BME280_pressure;Samples;Min_cycle;Max_cycle;Signal;HPM_P1;HPM_P2
2021/05/29 00:01:21;;;;;;;16.53;13.03;;;10.60;99.90;;;;;;5084904;28;20616;-75
2021/05/29 00:03:50;;;;;;;17.23;13.43;;;10.50;99.90;;;;;;5083650;28;20728;-74
2021/05/29 00:06:18;;;;;;;20.37;13.10;;;10.40;99.90;;;;;;5089162;28;20192;-75
2021/05/29 00:08:46;;;;;;;19.67;14.93;;;10.40;99.90;;;;;;5082166;28;20683;-74
2021/05/29 00:11:14;;;;;;;21.10;14.10;;;10.30;99.90;;;;;;5086865;28;20249;-75
2021/05/29 00:13:42;;;;;;;18.83;13.63;;;10.30;99.90;;;;;;5097895;28;20222;-74
2021/05/29 00:16:10;;;;;;;18.83;13.87;;;10.40;99.90;;;;;;5085855;28;20204;-74
2021/05/29 00:18:39;;;;;;;18.50;13.93;;;10.30;99.90;;;;;;5087282;28;20191;-74
2021/05/29 00:21:08;;;;;;;16.70;14.13;;;10.40;99.90;;;;;;5089060;28;20207;-75
2021/05/29 00:23:35;;;;;;;17.70;13.07;;;10.40;99.90;;;;;;5098805;28;20264;-74
2021/05/29 00:26:05;;;;;;;19.13;13.07;;;10.40;99.90;;;;;;5082137;28;20729;-75
2021/05/29 00:28:35;;;;;;;21.30;13.57;;;10.50;99.90;;;;;;5081057;28;20198;-74
2021/05/29 00:31:03;;;;;;;16.77;13.90;;;10.50;99.90;;;;;;5084185;28;20191;-74
2021/05/29 00:33:31;;;;;;;21.40;13.63;;;10.50;99.90;;;;;;5087413;28;20558;-73
2021/05/29 00:35:59;;;;;;;16.17;12.60;;;10.50;99.90;;;;;;5087464;28;20704;-75
2021/05/29 00:38:27;;;;;;;18.07;13.70;;;10.50;99.90;;;;;;5087004;28;20188;-75
2021/05/29 00:40:55;;;;;;;18.70;13.60;;;10.50;99.90;;;;;;5087532;28;20215;-74
2021/05/29 00:43:23;;;;;;;17.67;12.83;;;10.50;99.90;;;;;;5088745;28;20252;-74
2021/05/29 00:45:51;;;;;;;19.30;13.47;;;10.50;99.90;;;;;;5084721;28;20736;-74
2021/05/29 00:48:21;;;;;;;19.10;13.27;;;10.50;99.90;;;;;;5086469;28;20187;-74
2021/05/29 00:50:48;;;;;;;18.27;14.50;;;10.50;99.90;;;;;;5082943;28;20719;-74
2021/05/29 00:53:17;;;;;;;17.07;13.57;;;10.50;99.90;;;;;;5086423;28;20596;-75
2021/05/29 00:55:46;;;;;;;20.87;13.80;;;10.40;99.90;;;;;;5078514;28;20196;-74
2021/05/29 00:58:14;;;;;;;23.00;14.50;;;10.40;99.90;;;;;;5083258;28;20278;-74
2021/05/29 01:00:43;;;;;;;16.77;13.07;;;10.40;99.90;;;;;;5078402;28;20272;-73
2021/05/29 01:03:11;;;;;;;18.90;14.07;;;10.40;99.90;;;;;;5081271;28;20290;-75
2021/05/29 01:05:39;;;;;;;22.60;14.10;;;10.40;99.90;;;;;;5087659;28;20199;-75
2021/05/29 01:08:08;;;;;;;22.40;15.43;;;10.40;99.90;;;;;;5085086;28;20191;-74
2021/05/29 01:10:36;;;;;;;19.37;14.43;;;10.40;99.90;;;;;;5079281;28;20192;-75
2021/05/29 01:13:06;;;;;;;23.90;15.23;;;10.50;99.90;;;;;;5087136;28;20203;-75
2021/05/29 01:15:37;;;;;;;21.63;15.43;;;10.50;99.90;;;;;;5083672;28;20196;-74
2021/05/29 01:18:08;;;;;;;23.57;14.63;;;10.50;99.90;;;;;;5084707;28;20199;-74
2021/05/29 01:20:37;;;;;;;21.97;14.57;;;10.60;99.90;;;;;;5086621;28;20215;-74
2021/05/29 01:23:07;;;;;;;19.43;15.37;;;10.60;99.90;;;;;;5082855;28;20252;-75
2021/05/29 01:25:37;;;;;;;19.67;15.20;;;10.60;99.90;;;;;;5087668;28;20239;-74
2021/05/29 01:28:07;;;;;;;22.67;14.97;;;10.60;99.90;;;;;;5080943;28;20208;-75
2021/05/29 01:30:37;;;;;;;17.67;13.43;;;10.60;99.90;;;;;;5079616;28;20200;-74
2021/05/29 01:33:09;;;;;;;24.13;15.23;;;10.60;99.90;;;;;;5101587;28;20215;-74
2021/05/29 01:35:37;;;;;;;20.80;14.63;;;10.60;99.90;;;;;;5088495;28;20282;-74
2021/05/29 01:38:06;;;;;;;22.43;14.87;;;10.70;99.90;;;;;;5083325;28;20209;-74
2021/05/29 01:40:34;;;;;;;17.67;14.70;;;10.70;99.90;;;;;;5082608;28;20220;-74
2021/05/29 01:43:03;;;;;;;20.43;14.60;;;10.70;99.90;;;;;;5086116;28;20195;-73
2021/05/29 01:45:31;;;;;;;18.30;13.83;;;10.70;99.90;;;;;;5086610;28;20719;-75
2021/05/29 01:48:03;;;;;;;17.87;14.13;;;10.70;99.90;;;;;;5085479;28;20187;-74
2021/05/29 01:50:31;;;;;;;21.27;14.60;;;10.60;99.90;;;;;;5085076;28;20187;-74
2021/05/29 01:53:03;;;;;;;19.23;14.40;;;10.70;99.90;;;;;;5077878;28;20773;-74
2021/05/29 01:55:33;;;;;;;21.43;14.60;;;10.60;99.90;;;;;;5088959;28;20195;-74
2021/05/29 01:58:02;;;;;;;21.77;15.20;;;10.60;99.90;;;;;;5084922;28;20622;-74
2021/05/29 02:00:30;;;;;;;20.60;15.00;;;10.60;99.90;;;;;;5079477;28;20205;-74
2021/05/29 02:02:58;;;;;;;20.20;14.70;;;10.60;99.90;;;;;;5082616;28;20225;-74
2021/05/29 02:05:28;;;;;;;18.63;14.37;;;10.60;99.90;;;;;;5081661;28;20539;-74
2021/05/29 02:07:59;;;;;;;19.77;14.13;;;10.60;99.90;;;;;;5085861;28;20240;-74
2021/05/29 02:10:29;;;;;;;19.77;13.77;;;10.60;99.90;;;;;;5083465;28;20200;-75
2021/05/29 02:13:01;;;;;;;19.77;14.73;;;10.60;99.90;;;;;;5085769;28;20187;-74
2021/05/29 02:15:30;;;;;;;22.43;14.47;;;10.60;99.90;;;;;;5077719;28;20588;-74
2021/05/29 02:18:00;;;;;;;19.23;14.10;;;10.50;99.90;;;;;;5084298;28;20240;-74
2021/05/29 02:20:39;;;;;;;17.10;12.77;;;10.50;99.90;;;;;;5083541;28;20234;-75
2021/05/29 02:23:07;;;;;;;20.27;14.30;;;10.50;99.90;;;;;;5086213;28;20195;-74
2021/05/29 02:25:35;;;;;;;22.67;14.43;;;10.40;99.90;;;;;;5086377;28;20227;-74
2021/05/29 02:28:04;;;;;;;18.40;13.73;;;10.40;99.90;;;;;;5075559;28;20189;-75
2021/05/29 02:30:33;;;;;;;18.50;14.60;;;10.40;99.90;;;;;;5081649;28;20202;-74
2021/05/29 02:33:01;;;;;;;17.53;13.73;;;10.40;99.90;;;;;;5081560;28;20202;-74
2021/05/29 02:35:29;;;;;;;17.07;13.30;;;10.40;99.90;;;;;;5084226;28;20287;-75
2021/05/29 02:37:57;;;;;;;23.27;13.03;;;10.30;99.90;;;;;;5087776;28;20236;-74
2021/05/29 02:40:25;;;;;;;18.20;13.63;;;10.30;99.90;;;;;;5084509;28;20694;-74
2021/05/29 02:42:53;;;;;;;18.17;13.50;;;10.20;99.90;;;;;;5085055;28;20191;-74
2021/05/29 02:45:22;;;;;;;19.47;13.20;;;10.20;99.90;;;;;;5083239;28;20244;-74
2021/05/29 02:47:50;;;;;;;17.93;12.80;;;10.10;99.90;;;;;;5079486;28;20253;-73
2021/05/29 02:50:17;;;;;;;15.37;12.90;;;10.10;99.90;;;;;;5081858;28;20789;-74
2021/05/29 02:52:46;;;;;;;18.17;13.40;;;10.10;99.90;;;;;;5087607;28;20701;-74
2021/05/29 02:55:21;;;;;;;14.90;12.90;;;10.10;99.90;;;;;;5082429;28;20198;-74
2021/05/29 02:57:50;;;;;;;14.53;12.40;;;10.00;99.90;;;;;;5086160;28;20248;-73
2021/05/29 03:00:20;;;;;;;20.60;13.43;;;10.10;99.90;;;;;;5078608;28;20188;-73
2021/05/29 03:02:49;;;;;;;17.23;13.37;;;10.00;99.90;;;;;;5083494;28;20179;-71
2021/05/29 03:05:18;;;;;;;15.87;12.17;;;10.00;99.90;;;;;;5086565;28;20207;-75
2021/05/29 03:07:47;;;;;;;17.87;12.90;;;10.00;99.90;;;;;;5086472;28;20248;-74
2021/05/29 03:10:15;;;;;;;16.40;12.67;;;10.10;99.90;;;;;;5086301;28;20210;-74
2021/05/29 03:12:43;;;;;;;18.20;13.00;;;10.00;99.90;;;;;;5088663;28;20241;-74
2021/05/29 03:15:15;;;;;;;18.97;12.73;;;10.00;99.90;;;;;;5085584;28;20195;-74
2021/05/29 03:17:43;;;;;;;17.77;12.13;;;10.00;99.90;;;;;;5089821;28;20763;-74
2021/05/29 03:20:15;;;;;;;13.97;11.47;;;10.00;99.90;;;;;;5078745;28;20204;-74
2021/05/29 03:22:43;;;;;;;17.40;12.43;;;10.00;99.90;;;;;;5075021;28;20266;-74
2021/05/29 03:25:13;;;;;;;17.20;11.37;;;10.00;99.90;;;;;;5079535;28;20798;-74
2021/05/29 03:27:41;;;;;;;14.63;11.87;;;9.90;99.90;;;;;;5090768;28;20192;-74
2021/05/29 03:30:12;;;;;;;14.77;11.17;;;9.90;99.90;;;;;;5086316;28;20588;-74
2021/05/29 03:32:40;;;;;;;15.57;11.47;;;9.80;99.90;;;;;;5086320;28;20199;-74
2021/05/29 03:35:11;;;;;;;17.23;11.43;;;9.80;99.90;;;;;;5088201;28;20215;-73
2021/05/29 03:37:41;;;;;;;14.53;11.43;;;9.80;99.90;;;;;;5086328;28;20199;-74
2021/05/29 03:40:11;;;;;;;14.87;11.07;;;9.80;99.90;;;;;;5084549;28;20670;-74
2021/05/29 03:42:39;;;;;;;14.77;11.00;;;9.80;99.90;;;;;;5091467;28;20757;-73
2021/05/29 03:45:12;;;;;;;17.50;10.70;;;9.80;99.90;;;;;;5085576;28;20219;-74
2021/05/29 03:47:40;;;;;;;14.90;11.40;;;9.70;99.90;;;;;;5089306;28;20719;-74
2021/05/29 03:50:10;;;;;;;14.17;11.10;;;9.70;99.90;;;;;;5082875;28;20249;-74
2021/05/29 03:52:40;;;;;;;17.70;10.73;;;9.70;99.90;;;;;;5085531;28;20188;-73
2021/05/29 03:55:11;;;;;;;16.63;11.00;;;9.70;99.90;;;;;;5085890;28;20859;-74
2021/05/29 03:57:39;;;;;;;15.27;10.20;;;9.70;99.90;;;;;;5085453;28;20200;-74
2021/05/29 04:00:12;;;;;;;13.50;10.53;;;9.70;99.90;;;;;;5086082;28;20601;-74
2021/05/29 04:02:41;;;;;;;14.97;10.53;;;9.70;99.90;;;;;;5086753;28;20214;-74
2021/05/29 04:05:10;;;;;;;13.70;10.20;;;9.80;99.90;;;;;;5096612;28;20191;-74
2021/05/29 04:07:39;;;;;;;11.77;10.53;;;9.80;99.90;;;;;;5082816;28;20260;-73
2021/05/29 04:10:10;;;;;;;15.03;10.67;;;9.70;99.90;;;;;;5088616;28;20191;-74
2021/05/29 04:12:38;;;;;;;14.77;10.63;;;9.80;99.90;;;;;;5073263;28;20275;-74
2021/05/29 04:15:08;;;;;;;15.13;9.87;;;9.80;99.90;;;;;;5080669;28;20222;-74
2021/05/29 04:17:37;;;;;;;13.93;10.90;;;9.80;99.90;;;;;;5078668;28;20756;-74
2021/05/29 04:20:06;;;;;;;11.47;10.27;;;9.80;99.90;;;;;;5089850;28;20200;-74
2021/05/29 04:22:34;;;;;;;15.43;10.77;;;9.70;99.90;;;;;;5088247;28;20212;-74
2021/05/29 04:25:05;;;;;;;14.23;10.93;;;9.70;99.90;;;;;;5087448;28;20219;-73
2021/05/29 04:27:33;;;;;;;15.83;11.07;;;9.70;99.90;;;;;;5083814;28;20646;-74
2021/05/29 04:30:02;;;;;;;13.50;10.40;;;9.70;99.90;;;;;;5085236;28;20199;-73
2021/05/29 04:32:29;;;;;;;16.20;11.17;;;9.80;99.90;;;;;;5082757;28;20246;-74
2021/05/29 04:34:58;;;;;;;12.07;10.60;;;9.80;99.90;;;;;;5087024;28;20375;-74
2021/05/29 04:37:26;;;;;;;13.47;10.70;;;9.90;99.90;;;;;;5086997;28;20195;-74
2021/05/29 04:39:53;;;;;;;15.73;10.73;;;10.00;99.90;;;;;;5084385;28;20868;-73
2021/05/29 04:42:21;;;;;;;12.33;11.00;;;10.10;99.90;;;;;;5082454;28;20258;-74
2021/05/29 04:44:50;;;;;;;14.67;10.63;;;10.10;99.90;;;;;;5084314;28;20244;-74
2021/05/29 04:47:18;;;;;;;14.70;11.13;;;10.20;99.90;;;;;;5086740;28;20184;-74
2021/05/29 04:49:46;;;;;;;14.20;11.43;;;10.30;99.90;;;;;;5086336;28;20612;-73
2021/05/29 04:52:14;;;;;;;14.13;10.93;;;10.40;99.90;;;;;;5082565;28;20184;-74
2021/05/29 04:54:42;;;;;;;13.53;10.70;;;10.50;99.90;;;;;;5087448;28;20203;-74
2021/05/29 04:57:09;;;;;;;12.33;11.03;;;10.60;99.90;;;;;;5080143;28;20941;-74
2021/05/29 04:59:37;;;;;;;12.10;10.70;;;10.80;99.90;;;;;;5085029;28;20249;-73
2021/05/29 05:02:06;;;;;;;14.27;11.07;;;10.80;99.90;;;;;;5082201;28;20210;-74
2021/05/29 05:04:34;;;;;;;16.77;12.23;;;10.90;99.90;;;;;;5085571;28;20722;-73
2021/05/29 05:07:03;;;;;;;14.37;11.23;;;11.00;99.90;;;;;;5083748;28;20673;-74
2021/05/29 05:09:31;;;;;;;15.87;11.07;;;11.10;99.90;;;;;;5084821;28;20196;-74
2021/05/29 05:11:58;;;;;;;16.50;10.90;;;11.20;99.90;;;;;;5085148;28;20854;-73
2021/05/29 05:14:26;;;;;;;11.97;10.77;;;11.20;99.90;;;;;;5083303;28;20672;-73
2021/05/29 05:16:54;;;;;;;16.83;11.33;;;11.30;99.90;;;;;;5082214;28;20244;-70
2021/05/29 05:19:23;;;;;;;15.50;11.03;;;11.30;99.90;;;;;;5086086;28;20230;-74
2021/05/29 05:21:51;;;;;;;13.53;11.20;;;11.40;99.90;;;;;;5081469;28;20215;-74
2021/05/29 05:24:19;;;;;;;12.23;10.73;;;11.40;99.90;;;;;;5086758;28;20234;-74
2021/05/29 05:26:47;;;;;;;16.77;10.93;;;11.60;99.90;;;;;;5082013;28;20191;-74
2021/05/29 05:29:15;;;;;;;12.17;10.63;;;11.70;99.90;;;;;;5084341;28;20992;-73
2021/05/29 05:31:44;;;;;;;14.43;11.73;;;11.90;99.90;;;;;;5080473;28;20184;-73
2021/05/29 05:34:12;;;;;;;14.13;10.77;;;12.00;99.90;;;;;;5080976;28;20195;-74
2021/05/29 05:36:41;;;;;;;14.20;10.53;;;12.10;99.90;;;;;;5087818;28;20199;-73
2021/05/29 05:39:13;;;;;;;15.03;10.90;;;12.20;99.90;;;;;;5086441;28;20199;-74
2021/05/29 05:41:41;;;;;;;14.77;11.07;;;12.40;99.90;;;;;;5082583;28;20716;-74
2021/05/29 05:44:09;;;;;;;12.60;9.90;;;12.50;99.90;;;;;;5087689;28;20195;-74
2021/05/29 05:46:38;;;;;;;14.50;10.90;;;12.60;99.90;;;;;;5082203;28;20200;-74
2021/05/29 05:49:06;;;;;;;13.73;9.77;;;12.80;99.90;;;;;;5084999;28;20672;-74
2021/05/29 05:51:34;;;;;;;12.07;10.13;;;12.90;99.90;;;;;;5082405;28;20192;-74
2021/05/29 05:54:04;;;;;;;12.53;9.93;;;13.10;99.90;;;;;;5086085;28;20195;-73
2021/05/29 05:56:32;;;;;;;11.03;9.90;;;13.30;99.90;;;;;;5086365;28;20248;-73
2021/05/29 05:59:00;;;;;;;10.90;9.77;;;13.40;99.90;;;;;;5080690;28;20222;-73
2021/05/29 06:01:29;;;;;;;12.77;10.07;;;13.50;99.90;;;;;;5085465;28;20715;-74
2021/05/29 06:03:57;;;;;;;12.90;10.03;;;13.60;99.90;;;;;;5082773;28;20249;-70
2021/05/29 06:06:25;;;;;;;12.97;10.17;;;13.70;99.90;;;;;;5082932;28;20204;-74
2021/05/29 06:08:54;;;;;;;11.80;10.20;;;13.80;99.90;;;;;;5077583;28;20199;-74
2021/05/29 06:11:23;;;;;;;13.83;10.80;;;14.10;99.90;;;;;;5080250;28;20187;-74
2021/05/29 06:19:24;;;;;;;11.10;9.83;;;14.50;99.90;;;;;;5082777;28;20203;-74
2021/05/29 06:21:54;;;;;;;15.30;10.47;;;14.50;99.90;;;;;;5085219;28;20690;-74
2021/05/29 06:24:24;;;;;;;11.20;9.80;;;14.60;99.90;;;;;;5083565;28;20234;-74
2021/05/29 06:26:53;;;;;;;10.90;9.80;;;14.80;99.90;;;;;;5083010;28;20195;-74
2021/05/29 06:29:22;;;;;;;10.90;9.80;;;14.80;99.90;;;;;;5078985;28;20654;-74
2021/05/29 06:31:50;;;;;;;14.03;9.93;;;14.90;99.90;;;;;;5074893;28;20188;-74
2021/05/29 06:34:19;;;;;;;12.37;9.30;;;15.10;99.90;;;;;;5077639;28;20203;-75
2021/05/29 06:36:47;;;;;;;12.83;9.83;;;15.40;99.90;;;;;;5083022;28;20245;-75
2021/05/29 06:39:15;;;;;;;9.87;8.97;;;15.60;99.90;;;;;;5078438;28;20730;-75
2021/05/29 06:41:43;;;;;;;12.97;9.07;;;15.80;99.90;;;;;;5080514;28;20260;-75
2021/05/29 06:44:13;;;;;;;9.80;8.90;;;16.00;99.90;;;;;;5078406;28;20191;-74
2021/05/29 06:46:41;;;;;;;9.80;8.87;;;16.10;99.90;;;;;;5082768;28;20256;-74
2021/05/29 06:49:10;;;;;;;10.70;9.07;;;16.30;99.90;;;;;;5078646;28;20291;-75
2021/05/29 06:51:42;;;;;;;10.03;9.00;;;16.40;99.90;;;;;;5075448;28;20204;-75
2021/05/29 06:54:14;;;;;;;9.90;8.87;;;16.60;99.90;;;;;;5077232;28;20620;-75
2021/05/29 06:59:37;;;;;;;9.73;8.73;;;16.60;99.90;;;;;;5043884;28;20233;-75
2021/05/29 07:02:06;;;;;;;11.50;9.50;;;16.70;99.90;;;;;;5076113;28;20990;-75
2021/05/29 07:04:34;;;;;;;14.03;8.77;;;16.80;99.90;;;;;;5075192;28;20202;-75
2021/05/29 07:07:02;;;;;;;10.10;8.60;;;16.90;99.90;;;;;;5085360;28;20191;-74
2021/05/29 07:09:30;;;;;;;12.07;8.53;;;17.00;99.90;;;;;;5087793;28;20241;-75
2021/05/29 07:11:58;;;;;;;9.20;8.20;;;17.20;99.90;;;;;;5076586;28;20604;-76
2021/05/29 07:14:28;;;;;;;10.20;8.00;;;17.30;99.90;;;;;;5081207;28;20237;-76
2021/05/29 07:16:57;;;;;;;10.30;8.03;;;17.40;99.90;;;;;;5067714;28;20208;-76
2021/05/29 07:19:25;;;;;;;8.50;7.57;;;17.80;99.90;;;;;;5083137;28;20199;-76
2021/05/29 07:21:53;;;;;;;8.47;7.63;;;18.00;99.90;;;;;;5083279;28;20218;-77
2021/05/29 07:24:22;;;;;;;9.87;8.07;;;18.00;99.90;;;;;;5083640;28;20254;-76
2021/05/29 07:26:51;;;;;;;8.80;7.90;;;18.00;99.90;;;;;;5081505;28;20195;-74
2021/05/29 07:29:19;;;;;;;10.53;8.20;;;18.10;99.90;;;;;;5075379;28;20670;-73
2021/05/29 07:31:47;;;;;;;10.53;7.70;;;18.20;99.90;;;;;;5079785;28;21099;-75
2021/05/29 07:34:16;;;;;;;8.07;7.27;;;18.30;99.90;;;;;;5081479;28;20723;-74
2021/05/29 07:36:45;;;;;;;7.67;6.63;;;18.60;99.90;;;;;;5082229;28;20670;-74
2021/05/29 07:39:13;;;;;;;9.40;7.43;;;19.00;99.90;;;;;;5079255;28;20202;-77
2021/05/29 07:41:41;;;;;;;7.57;6.80;;;19.30;99.90;;;;;;5076382;28;20199;-75
2021/05/29 07:44:14;;;;;;;8.93;6.73;;;19.50;99.90;;;;;;5083064;28;20218;-76
2021/05/29 07:46:42;;;;;;;7.97;7.17;;;19.60;99.90;;;;;;5063470;28;20621;-75
2021/05/29 07:49:10;;;;;;;8.93;7.30;;;19.50;99.90;;;;;;5081210;28;20198;-77
2021/05/29 07:51:39;;;;;;;7.77;6.90;;;19.90;99.90;;;;;;5085938;28;21519;-77
2021/05/29 07:54:09;;;;;;;7.40;6.43;;;20.00;99.90;;;;;;5073900;28;20188;-76
2021/05/29 07:56:36;;;;;;;8.67;6.73;;;20.10;99.90;;;;;;5083846;28;20208;-76
2021/05/29 07:59:07;;;;;;;8.40;6.77;;;20.30;99.90;;;;;;5081717;28;20199;-76
2021/05/29 08:01:37;;;;;;;6.80;6.20;;;20.50;99.90;;;;;;5072977;28;20245;-76
2021/05/29 08:04:05;;;;;;;6.63;6.00;;;20.70;99.90;;;;;;5079842;28;20734;-76
2021/05/29 08:06:36;;;;;;;7.13;6.40;;;20.90;99.90;;;;;;5085809;28;20193;-77
2021/05/29 08:09:07;;;;;;;9.77;6.00;;;21.10;99.90;;;;;;5086400;28;20193;-77
2021/05/29 08:11:35;;;;;;;7.67;5.87;;;21.30;99.90;;;;;;5081624;28;20280;-76
2021/05/29 08:14:05;;;;;;;6.23;5.73;;;21.40;99.90;;;;;;5083873;28;20190;-73
2021/05/29 08:16:34;;;;;;;7.50;5.47;;;21.50;99.90;;;;;;5086257;28;20192;-77
2021/05/29 08:19:03;;;;;;;6.73;5.70;;;21.90;99.90;;;;;;5080877;28;20281;-78
2021/05/29 08:21:31;;;;;;;6.50;6.00;;;22.30;99.90;;;;;;5077253;28;20617;-78
2021/05/29 08:23:59;;;;;;;6.50;5.87;;;22.40;99.90;;;;;;5088793;28;20292;-78
2021/05/29 08:26:28;;;;;;;6.20;5.67;;;22.20;99.90;;;;;;5086100;28;20195;-78
2021/05/29 08:28:55;;;;;;;6.32;5.43;;;22.60;99.90;;;;;;5071229;28;20228;-79
2021/05/29 08:31:26;;;;;;;6.50;5.60;;;22.70;99.90;;;;;;5094603;28;20200;-79
2021/05/29 08:33:54;;;;;;;5.10;4.65;;;22.80;99.90;;;;;;5083809;28;20284;-78
2021/05/29 08:36:22;;;;;;;6.07;4.78;;;23.30;99.90;;;;;;5095381;28;20244;-78
2021/05/29 08:38:50;;;;;;;4.90;4.30;;;23.70;99.90;;;;;;5088923;28;20196;-79
2021/05/29 08:41:18;;;;;;;5.68;4.32;;;24.10;99.90;;;;;;5085895;28;20184;-79
2021/05/29 08:43:48;;;;;;;7.20;4.35;;;24.40;99.90;;;;;;5081378;28;20215;-78
2021/05/29 08:46:16;;;;;;;6.78;5.15;;;24.50;99.90;;;;;;5082784;28;20191;-78
2021/05/29 08:48:44;;;;;;;4.57;4.15;;;24.60;99.90;;;;;;5073964;28;20224;-78
2021/05/29 08:51:16;;;;;;;3.97;3.70;;;25.00;99.90;;;;;;5077616;28;20646;-78
2021/05/29 08:53:46;;;;;;;4.20;3.80;;;25.00;99.90;;;;;;5085425;28;20551;-79
2021/05/29 08:56:15;;;;;;;4.45;3.85;;;24.50;99.90;;;;;;5072472;28;20197;-80
2021/05/29 08:58:43;;;;;;;3.20;3.10;;;24.70;99.90;;;;;;5076338;28;20211;-79
2021/05/29 09:01:12;;;;;;;3.83;3.50;;;24.90;99.90;;;;;;5086801;28;20904;-78
2021/05/29 09:03:42;;;;;;;4.47;3.22;;;25.30;99.90;;;;;;5080169;28;20212;-79
2021/05/29 09:06:12;;;;;;;4.00;3.70;;;25.80;99.90;;;;;;5086590;28;20200;-78
2021/05/29 09:08:54;;;;;;;3.80;3.47;;;25.80;99.50;;;;;;5082833;28;20197;-79
2021/05/29 09:11:48;;;;;;;4.30;3.95;;;25.60;99.90;;;;;;5080870;28;20256;-78
2021/05/29 09:14:36;;;;;;;4.93;4.22;;;25.50;99.40;;;;;;5077575;28;20183;-79
2021/05/29 09:17:12;;;;;;;4.75;4.10;;;25.80;99.90;;;;;;5078363;28;20192;-76
2021/05/29 09:20:09;;;;;;;4.72;4.30;;;25.80;98.90;;;;;;5082386;28;20193;-77
2021/05/29 09:22:38;;;;;;;4.88;3.88;;;25.70;99.90;;;;;;5080638;28;20819;-78
2021/05/29 09:25:13;;;;;;;4.90;4.50;;;25.90;99.90;;;;;;5082257;28;20230;-76
2021/05/29 09:27:54;;;;;;;4.97;4.57;;;25.70;99.90;;;;;;5079315;28;20189;-80
2021/05/29 09:30:40;;;;;;;4.60;4.20;;;25.60;98.90;;;;;;5084009;28;20256;-78
2021/05/29 09:33:12;;;;;;;4.90;4.57;;;25.80;99.90;;;;;;5079121;28;20273;-78
2021/05/29 09:35:40;;;;;;;5.00;4.50;;;25.60;99.10;;;;;;5076425;28;20200;-78
2021/05/29 09:38:09;;;;;;;4.90;4.50;;;25.80;99.90;;;;;;5078889;28;20241;-77
2021/05/29 09:40:37;;;;;;;6.07;4.50;;;25.80;98.30;;;;;;5085508;28;20685;-77
2021/05/29 09:43:07;;;;;;;5.43;4.93;;;25.80;99.00;;;;;;5077374;28;20270;-79
2021/05/29 09:45:37;;;;;;;4.75;4.45;;;25.30;99.30;;;;;;5070232;28;20194;-75
2021/05/29 09:48:16;;;;;;;4.75;4.35;;;25.40;99.90;;;;;;5083698;28;20196;-76
2021/05/29 09:51:06;;;;;;;6.07;4.43;;;25.80;99.90;;;;;;5083662;28;20209;-80
2021/05/29 09:53:35;;;;;;;4.60;4.15;;;26.00;99.40;;;;;;5083712;28;20199;-80
2021/05/29 09:56:05;;;;;;;4.60;4.10;;;26.20;99.90;;;;;;5078823;28;20267;-79
2021/05/29 09:58:54;;;;;;;4.70;4.28;;;26.50;99.50;;;;;;5089107;28;20191;-79
2021/05/29 10:01:40;;;;;;;4.65;4.30;;;26.50;99.60;;;;;;5091836;28;20720;-80
2021/05/29 10:04:11;;;;;;;4.03;3.72;;;26.20;97.80;;;;;;5086625;28;20717;-78
2021/05/29 10:06:39;;;;;;;3.72;3.53;;;26.40;96.90;;;;;;5084509;28;20245;-80
2021/05/29 10:09:08;;;;;;;3.53;3.30;;;26.70;97.20;;;;;;5082325;28;20721;-79
2021/05/29 10:11:37;;;;;;;3.50;3.40;;;26.80;97.00;;;;;;5082455;28;20228;-78
2021/05/29 10:14:07;;;;;;;3.80;3.60;;;26.00;96.50;;;;;;5086492;28;20215;-79
2021/05/29 10:16:37;;;;;;;4.20;3.90;;;25.80;95.90;;;;;;5082218;28;20727;-79
2021/05/29 10:19:08;;;;;;;4.20;3.90;;;25.90;97.60;;;;;;5082511;28;20203;-79
2021/05/29 10:21:37;;;;;;;4.05;3.60;;;26.10;94.30;;;;;;5080121;28;20202;-79
2021/05/29 10:24:07;;;;;;;3.85;3.55;;;25.30;95.50;;;;;;5079555;28;20245;-78
2021/05/29 10:26:36;;;;;;;4.72;4.32;;;24.50;95.10;;;;;;5080873;28;20662;-78
2021/05/29 10:29:05;;;;;;;3.88;3.58;;;24.10;96.30;;;;;;5075517;28;20204;-76
2021/05/29 10:31:36;;;;;;;4.27;3.80;;;23.70;98.30;;;;;;5074636;28;20196;-78
2021/05/29 10:34:07;;;;;;;4.87;3.20;;;24.20;98.20;;;;;;5081701;28;20287;-77
2021/05/29 10:36:47;;;;;;;3.40;3.10;;;24.50;97.10;;;;;;5083295;28;20219;-78
2021/05/29 10:39:23;;;;;;;2.90;2.80;;;24.90;97.90;;;;;;5080773;28;20214;-78
2021/05/29 10:41:59;;;;;;;4.57;3.05;;;25.20;94.70;;;;;;5095379;28;20202;-79
2021/05/29 10:44:38;;;;;;;2.78;2.67;;;25.40;94.10;;;;;;5080477;28;20273;-77
2021/05/29 10:47:09;;;;;;;2.30;2.20;;;25.80;93.00;;;;;;5089841;28;20188;-76
2021/05/29 10:49:57;;;;;;;1.90;1.80;;;26.00;95.50;;;;;;5067761;28;20453;-80
2021/05/29 10:52:53;;;;;;;2.25;2.05;;;26.40;96.10;;;;;;5081414;28;20227;-79
2021/05/29 10:55:26;;;;;;;2.28;2.15;;;26.00;92.70;;;;;;5080810;28;20440;-79
2021/05/29 10:57:59;;;;;;;2.40;2.30;;;25.40;93.40;;;;;;5079194;28;20268;-78
2021/05/29 11:00:59;;;;;;;3.10;2.90;;;25.50;95.10;;;;;;5068687;28;20196;-78
2021/05/29 11:03:28;;;;;;;2.77;2.57;;;25.60;93.80;;;;;;5078819;28;20310;-77
2021/05/29 11:06:01;;;;;;;2.30;2.10;;;25.30;95.90;;;;;;5080987;28;20215;-76
2021/05/29 11:08:48;;;;;;;2.70;2.53;;;25.40;94.40;;;;;;5073800;28;20196;-77
2021/05/29 11:11:54;;;;;;;2.10;2.00;;;25.40;94.20;;;;;;5071090;28;20208;-77
2021/05/29 11:14:24;;;;;;;2.60;2.40;;;25.50;95.60;;;;;;5069206;28;20220;-77
2021/05/29 11:17:12;;;;;;;2.30;2.10;;;25.50;95.70;;;;;;5071721;28;20677;-78
2021/05/29 11:19:43;;;;;;;3.13;2.60;;;26.00;96.60;;;;;;5071994;28;20281;-76
2021/05/29 11:22:14;;;;;;;2.55;2.20;;;26.30;95.60;;;;;;5071346;28;20198;-74
2021/05/29 11:24:56;;;;;;;2.30;2.10;;;26.20;94.90;;;;;;5074991;28;20261;-76
2021/05/29 11:27:26;;;;;;;5.75;2.30;;;26.20;95.50;;;;;;5078079;28;20214;-76
2021/05/29 11:29:55;;;;;;;2.17;2.08;;;26.60;97.60;;;;;;5069945;28;20295;-76
2021/05/29 11:32:42;;;;;;;3.20;2.20;;;26.40;93.90;;;;;;5069436;28;20246;-75
2021/05/29 11:35:35;;;;;;;3.43;2.23;;;25.20;93.70;;;;;;5070407;28;20425;-76
2021/05/29 11:38:10;;;;;;;3.13;2.30;;;24.70;93.00;;;;;;5078482;28;20211;-77
2021/05/29 11:40:57;;;;;;;2.07;1.97;;;24.80;97.80;;;;;;5077207;28;20670;-76
2021/05/29 11:43:42;;;;;;;2.20;2.10;;;25.10;95.30;;;;;;5079275;28;20213;-77
2021/05/29 11:46:11;;;;;;;3.10;2.90;;;25.60;97.10;;;;;;5080517;28;20691;-77
2021/05/29 11:48:41;;;;;;;2.87;2.67;;;25.30;93.40;;;;;;5085360;28;20199;-76
2021/05/29 11:51:12;;;;;;;2.83;2.60;;;24.70;96.00;;;;;;5082424;28;20756;-75
2021/05/29 11:53:45;;;;;;;3.40;2.70;;;24.20;95.40;;;;;;5082511;28;20781;-76
2021/05/29 11:56:16;;;;;;;2.80;2.70;;;23.30;94.00;;;;;;5077462;28;20195;-76
2021/05/29 11:58:47;;;;;;;2.83;2.60;;;23.00;94.10;;;;;;5079929;28;20319;-76
2021/05/29 12:01:17;;;;;;;2.93;2.67;;;23.30;97.10;;;;;;5078037;28;20199;-75
2021/05/29 12:03:50;;;;;;;2.57;2.43;;;23.70;96.20;;;;;;5081667;28;20259;-76
2021/05/29 12:06:46;;;;;;;2.40;2.30;;;24.10;95.70;;;;;;5078595;28;20196;-75
2021/05/29 12:09:15;;;;;;;2.30;2.20;;;24.30;97.10;;;;;;5066299;28;20214;-75
2021/05/29 12:11:46;;;;;;;2.47;2.20;;;24.40;94.90;;;;;;5085750;28;20197;-76
2021/05/29 12:14:19;;;;;;;3.97;1.97;;;24.50;97.40;;;;;;5076837;28;20556;-77
2021/05/29 12:16:53;;;;;;;2.50;2.30;;;24.50;95.70;;;;;;5074719;28;20246;-78
2021/05/29 12:19:32;;;;;;;2.30;2.20;;;24.10;94.60;;;;;;5078775;28;20199;-78
2021/05/29 12:22:02;;;;;;;2.73;2.53;;;24.10;95.90;;;;;;5080654;28;20197;-76
2021/05/29 12:24:37;;;;;;;2.93;2.60;;;24.10;97.70;;;;;;5078838;28;20228;-77
2021/05/29 12:27:06;;;;;;;6.30;2.97;;;24.20;96.10;;;;;;5086311;28;20188;-74
2021/05/29 12:29:37;;;;;;;3.10;2.63;;;24.00;95.60;;;;;;5086449;28;20608;-79
2021/05/29 12:32:05;;;;;;;2.53;2.43;;;23.80;93.50;;;;;;5087301;28;20199;-78
2021/05/29 12:34:33;;;;;;;3.00;2.80;;;23.70;93.50;;;;;;5081562;28;20219;-78
2021/05/29 12:37:08;;;;;;;3.00;2.80;;;24.00;96.70;;;;;;5077980;28;20291;-78
2021/05/29 12:39:49;;;;;;;3.00;2.80;;;24.10;96.50;;;;;;5088270;28;20192;-80
2021/05/29 12:42:38;;;;;;;2.57;2.47;;;24.10;94.50;;;;;;5079084;28;20533;-78
2021/05/29 12:45:14;;;;;;;3.40;2.53;;;24.00;97.80;;;;;;5076817;28;20307;-78
2021/05/29 12:47:52;;;;;;;3.30;3.10;;;24.30;99.10;;;;;;5075673;28;20743;-78
2021/05/29 12:50:22;;;;;;;3.17;2.97;;;24.30;94.20;;;;;;5078563;28;20196;-78
2021/05/29 12:52:50;;;;;;;3.90;3.60;;;24.30;96.80;;;;;;5078323;28;20261;-75
2021/05/29 12:55:21;;;;;;;3.00;2.90;;;24.20;96.00;;;;;;5068537;28;20219;-74
2021/05/29 12:57:50;;;;;;;3.97;3.67;;;23.90;94.70;;;;;;5075367;28;20251;-75
2021/05/29 13:00:23;;;;;;;3.23;3.07;;;23.20;94.00;;;;;;5074502;28;20876;-74
2021/05/29 13:09:12;;;;;;;4.13;3.83;;;23.90;99.10;;;;;;5079144;28;20187;-75
2021/05/29 13:11:41;;;;;;;4.20;3.90;;;24.10;96.40;;;;;;5074785;28;20199;-75